createdAt,value
2017-12-03T00:03:11.817Z,74.40
2017-12-03T00:05:39.457Z,74.60
2017-12-03T00:08:07.035Z,74.40
2017-12-03T00:10:35.429Z,74.40
2017-12-03T00:13:04.547Z,74.40
2017-12-03T00:15:32.133Z,74.30
2017-12-03T00:17:59.780Z,74.50
2017-12-03T00:20:27.359Z,74.40
2017-12-03T00:22:55.235Z,74.50
2017-12-03T00:25:22.941Z,74.60
2017-12-03T00:27:50.541Z,74.50
2017-12-03T00:30:18.249Z,74.50
2017-12-03T00:32:46.632Z,74.50
2017-12-03T00:35:14.389Z,74.90
2017-12-03T00:37:42.745Z,74.90
2017-12-03T00:40:10.547Z,74.70
2017-12-03T00:42:38.962Z,75.00
2017-12-03T00:45:06.533Z,75.00
2017-12-03T00:47:34.154Z,74.90
2017-12-03T00:50:01.728Z,75.00
2017-12-03T00:52:29.374Z,75.20
2017-12-03T00:54:56.959Z,75.10
2017-12-03T00:57:24.763Z,75.00
2017-12-03T00:59:52.364Z,75.20
2017-12-03T01:02:19.946Z,75.40
2017-12-03T01:04:47.563Z,75.40
2017-12-03T01:07:15.934Z,75.20
2017-12-03T01:09:43.575Z,75.20
2017-12-03T01:12:12.684Z,75.40
2017-12-03T01:14:40.381Z,75.40
2017-12-03T01:17:08.008Z,76.20
2017-12-03T01:19:36.366Z,76.10
2017-12-03T01:22:04.002Z,75.50
2017-12-03T01:24:31.614Z,75.60
2017-12-03T01:27:00.004Z,75.70
2017-12-03T01:29:27.605Z,75.70
2017-12-03T01:31:55.586Z,75.50
2017-12-03T01:34:23.182Z,75.60
2017-12-03T01:36:50.757Z,75.70
2017-12-03T01:39:19.141Z,75.80
2017-12-03T01:41:46.709Z,75.80
2017-12-03T01:44:14.320Z,75.80
2017-12-03T01:46:41.886Z,75.50
2017-12-03T01:49:09.498Z,75.50
2017-12-03T01:51:37.100Z,75.30
2017-12-03T01:54:04.704Z,75.20
2017-12-03T01:56:32.265Z,75.30
2017-12-03T01:58:59.835Z,75.10
2017-12-03T02:01:27.534Z,75.20
2017-12-03T02:03:55.103Z,75.20
2017-12-03T02:06:22.732Z,75.20
2017-12-03T02:08:50.304Z,75.20
2017-12-03T02:11:17.933Z,75.10
2017-12-03T02:13:45.518Z,75.10
2017-12-03T02:16:13.130Z,74.90
2017-12-03T02:18:40.717Z,75.00
2017-12-03T02:21:08.281Z,74.40
2017-12-03T02:23:36.277Z,74.40
2017-12-03T02:26:03.946Z,74.40
2017-12-03T02:28:31.535Z,74.40
2017-12-03T02:30:59.168Z,74.30
2017-12-03T02:33:26.949Z,74.40
2017-12-03T02:35:54.572Z,74.70
2017-12-03T02:38:22.116Z,74.50
2017-12-03T02:40:49.696Z,74.60
2017-12-03T02:43:17.359Z,74.70
2017-12-03T02:45:44.942Z,74.70
2017-12-03T02:48:12.550Z,74.90
2017-12-03T02:50:40.105Z,75.10
2017-12-03T02:53:07.689Z,75.20
2017-12-03T02:55:35.408Z,74.80
2017-12-03T02:58:02.991Z,74.70
2017-12-03T03:00:30.619Z,74.70
2017-12-03T03:02:59.003Z,74.90
2017-12-03T03:05:26.629Z,74.90
2017-12-03T03:07:54.294Z,74.80
2017-12-03T03:10:21.856Z,74.70
2017-12-03T03:12:49.482Z,74.70
2017-12-03T03:15:17.053Z,74.90
2017-12-03T03:17:44.647Z,74.80
2017-12-03T03:20:12.221Z,74.80
2017-12-03T03:22:39.838Z,74.80
2017-12-03T03:25:07.428Z,74.90
2017-12-03T03:27:35.011Z,75.00
2017-12-03T03:30:02.610Z,74.90
2017-12-03T03:32:30.235Z,75.00
2017-12-03T03:34:58.616Z,75.10
2017-12-03T03:37:26.210Z,75.10
2017-12-03T03:39:53.834Z,75.00
2017-12-03T03:42:22.322Z,75.00
2017-12-03T03:44:50.654Z,74.80
2017-12-03T03:47:18.285Z,74.90
2017-12-03T03:49:45.861Z,74.60
2017-12-03T03:52:13.501Z,74.60
2017-12-03T03:54:41.103Z,74.30
2017-12-03T03:57:09.261Z,74.30
2017-12-03T03:59:37.092Z,74.70
2017-12-03T04:02:04.665Z,74.30
2017-12-03T04:04:32.270Z,74.40
2017-12-03T04:06:59.872Z,74.50
2017-12-03T04:09:27.491Z,74.30
2017-12-03T04:11:56.594Z,74.60
2017-12-03T04:14:24.238Z,74.50
2017-12-03T04:16:53.317Z,74.90
2017-12-03T04:19:20.898Z,74.90
2017-12-03T04:21:48.529Z,74.80
2017-12-03T04:24:16.108Z,74.70
2017-12-03T04:26:43.737Z,74.80
2017-12-03T04:29:11.346Z,75.00
2017-12-03T04:31:40.213Z,75.40
2017-12-03T04:34:07.795Z,75.00
2017-12-03T04:36:35.360Z,75.30
2017-12-03T04:39:03.745Z,75.50
2017-12-03T04:41:31.324Z,74.90
2017-12-03T04:43:58.933Z,75.00
2017-12-03T04:46:26.485Z,75.10
2017-12-03T04:48:54.445Z,75.30
2017-12-03T04:51:22.217Z,75.30
2017-12-03T04:53:49.803Z,75.30
2017-12-03T04:56:17.435Z,75.20
2017-12-03T04:58:44.992Z,75.30
2017-12-03T05:01:12.689Z,75.30
2017-12-03T05:03:40.262Z,75.40
2017-12-03T05:06:09.124Z,75.30
2017-12-03T05:08:37.463Z,75.20
2017-12-03T05:11:05.041Z,75.20
2017-12-03T05:13:32.705Z,75.20
2017-12-03T05:16:00.323Z,75.20
2017-12-03T05:18:27.930Z,75.20
2017-12-03T05:20:55.529Z,75.30
2017-12-03T05:23:24.383Z,75.00
2017-12-03T05:25:51.971Z,75.00
2017-12-03T05:28:19.565Z,75.20
2017-12-03T05:30:47.893Z,75.20
2017-12-03T05:33:15.487Z,75.10
2017-12-03T05:35:43.865Z,74.70
2017-12-03T05:38:11.429Z,74.70
2017-12-03T05:40:39.486Z,74.70
2017-12-03T05:43:07.966Z,75.00
2017-12-03T05:45:36.346Z,75.00
2017-12-03T05:48:03.978Z,74.90
2017-12-03T05:50:33.081Z,74.90
2017-12-03T05:53:02.214Z,75.10
2017-12-03T05:55:29.805Z,75.10
2017-12-03T05:57:57.424Z,75.10
2017-12-03T06:00:25.780Z,74.90
2017-12-03T06:02:53.434Z,74.90
2017-12-03T06:05:21.003Z,75.10
2017-12-03T06:07:48.585Z,75.10
2017-12-03T06:10:16.248Z,75.00
2017-12-03T06:12:43.945Z,75.10
2017-12-03T06:15:11.572Z,75.10
2017-12-03T06:17:39.176Z,74.80
2017-12-03T06:20:07.157Z,74.80
2017-12-03T06:22:34.954Z,75.10
2017-12-03T06:25:02.528Z,75.00
2017-12-03T06:27:30.187Z,75.10
2017-12-03T06:29:58.554Z,75.20
2017-12-03T06:32:26.293Z,75.10
2017-12-03T06:34:54.652Z,75.10
2017-12-03T06:37:22.280Z,75.10
2017-12-03T06:39:49.863Z,75.20
2017-12-03T06:42:17.447Z,75.20
2017-12-03T06:44:45.197Z,75.10
2017-12-03T06:47:12.921Z,75.10
2017-12-03T06:49:40.518Z,74.90
2017-12-03T06:52:08.112Z,75.20
2017-12-03T06:54:35.782Z,75.50
2017-12-03T06:57:03.345Z,75.00
2017-12-03T06:59:31.757Z,75.00
2017-12-03T07:01:59.393Z,74.90
2017-12-03T07:04:27.150Z,75.10
2017-12-03T07:06:55.602Z,75.00
2017-12-03T07:09:23.975Z,75.00
2017-12-03T07:11:51.959Z,75.00
2017-12-03T07:14:19.575Z,74.80
2017-12-03T07:16:47.331Z,74.90
2017-12-03T07:19:14.949Z,74.90
2017-12-03T07:21:42.525Z,74.70
2017-12-03T07:24:10.406Z,74.90
2017-12-03T07:26:38.042Z,74.90
2017-12-03T07:29:05.888Z,74.90
2017-12-03T07:31:35.297Z,75.10
2017-12-03T07:34:02.901Z,75.00
2017-12-03T07:36:30.526Z,74.80
2017-12-03T07:38:58.096Z,75.00
2017-12-03T07:41:26.553Z,75.00
2017-12-03T07:43:54.882Z,74.70
2017-12-03T07:46:22.461Z,74.70
2017-12-03T07:48:50.128Z,74.70
2017-12-03T07:51:17.721Z,74.60
2017-12-03T07:53:45.564Z,74.50
2017-12-03T07:56:13.500Z,74.40
2017-12-03T07:58:41.134Z,74.20
2017-12-03T08:01:08.827Z,74.10
2017-12-03T08:03:36.417Z,74.00
2017-12-03T08:06:04.062Z,74.00
2017-12-03T08:08:31.642Z,73.80
2017-12-03T08:10:59.246Z,73.80
2017-12-03T08:13:26.896Z,73.60
2017-12-03T08:15:54.874Z,73.50
2017-12-03T08:18:23.263Z,73.50
2017-12-03T08:20:51.575Z,73.50
2017-12-03T08:23:19.151Z,73.10
2017-12-03T08:25:46.993Z,72.90
2017-12-03T08:28:14.579Z,72.90
2017-12-03T08:30:42.730Z,72.90
2017-12-03T08:33:10.312Z,72.90
2017-12-03T08:35:38.151Z,73.00
2017-12-03T08:38:05.841Z,72.90
2017-12-03T08:40:34.178Z,72.50
2017-12-03T08:43:01.748Z,72.50
2017-12-03T08:45:29.626Z,72.30
2017-12-03T08:47:57.201Z,72.00
2017-12-03T08:50:24.757Z,72.00
2017-12-03T08:52:52.356Z,71.80
2017-12-03T08:55:19.925Z,71.50
2017-12-03T08:57:47.553Z,72.10
2017-12-03T09:00:15.121Z,71.50
2017-12-03T09:02:43.491Z,71.70
2017-12-03T09:05:11.156Z,71.60
2017-12-03T09:07:39.708Z,72.20
2017-12-03T09:10:07.334Z,71.60
2017-12-03T09:12:35.043Z,71.70
2017-12-03T09:15:02.850Z,71.80
2017-12-03T09:17:30.462Z,71.90
2017-12-03T09:19:58.552Z,71.90
2017-12-03T09:22:26.124Z,72.10
2017-12-03T09:24:53.701Z,72.00
2017-12-03T09:27:21.373Z,72.20
2017-12-03T09:29:48.959Z,72.10
2017-12-03T09:32:16.996Z,72.30
2017-12-03T09:34:44.561Z,72.40
2017-12-03T09:37:12.121Z,72.30
2017-12-03T09:39:39.737Z,72.30
2017-12-03T09:42:07.317Z,72.40
2017-12-03T09:44:35.701Z,72.80
2017-12-03T09:47:03.297Z,72.70
2017-12-03T09:49:31.675Z,72.60
2017-12-03T09:51:59.543Z,72.50
2017-12-03T09:54:27.148Z,72.20
2017-12-03T09:56:55.701Z,72.00
2017-12-03T09:59:23.278Z,72.00
2017-12-03T10:01:51.248Z,72.10
2017-12-03T10:04:18.822Z,72.10
2017-12-03T10:06:46.413Z,72.00
2017-12-03T10:09:14.032Z,71.80
2017-12-03T10:11:42.373Z,71.80
2017-12-03T10:14:10.015Z,71.80
2017-12-03T10:16:37.870Z,71.70
2017-12-03T10:19:05.682Z,71.60
2017-12-03T10:21:33.298Z,71.50
2017-12-03T10:24:00.907Z,71.20
2017-12-03T10:26:29.009Z,71.10
2017-12-03T10:28:56.608Z,71.20
2017-12-03T10:31:24.181Z,71.00
2017-12-03T10:33:51.818Z,70.90
2017-12-03T10:36:19.389Z,70.80
2017-12-03T10:38:47.051Z,70.80
2017-12-03T10:41:14.600Z,71.50
2017-12-03T10:43:42.239Z,70.90
2017-12-03T10:46:09.845Z,70.90
2017-12-03T10:48:37.460Z,70.60
2017-12-03T10:51:05.828Z,70.90
2017-12-03T10:53:33.772Z,70.90
2017-12-03T10:56:01.356Z,70.90
2017-12-03T10:58:29.032Z,70.80
2017-12-03T11:00:56.618Z,70.50
2017-12-03T11:03:24.226Z,71.30
2017-12-03T11:05:51.798Z,70.60
2017-12-03T11:08:19.369Z,70.50
2017-12-03T11:10:47.758Z,70.30
2017-12-03T11:13:15.327Z,70.20
2017-12-03T11:15:42.970Z,70.10
2017-12-03T11:18:11.470Z,70.50
2017-12-03T11:20:39.101Z,70.50
2017-12-03T11:23:07.966Z,70.40
2017-12-03T11:25:35.554Z,69.80
2017-12-03T11:28:03.144Z,70.20
2017-12-03T11:30:30.793Z,69.90
2017-12-03T11:32:58.385Z,70.60
2017-12-03T11:35:26.179Z,70.30
2017-12-03T11:37:55.270Z,70.30
2017-12-03T11:40:22.851Z,70.30
2017-12-03T11:42:51.349Z,70.90
2017-12-03T11:45:19.725Z,70.40
2017-12-03T11:47:47.308Z,70.30
2017-12-03T11:50:14.932Z,70.60
2017-12-03T11:52:43.424Z,70.30
2017-12-03T11:55:11.929Z,70.60
2017-12-03T11:57:39.518Z,70.50
2017-12-03T12:00:07.118Z,70.30
2017-12-03T12:02:34.741Z,70.80
2017-12-03T12:05:02.341Z,70.30
2017-12-03T12:07:30.735Z,70.20
2017-12-03T12:09:58.321Z,70.20
2017-12-03T12:12:25.933Z,70.40
2017-12-03T12:14:54.280Z,70.40
2017-12-03T12:17:21.988Z,70.40
2017-12-03T12:19:49.575Z,70.40
2017-12-03T12:22:17.209Z,70.90
2017-12-03T12:24:45.109Z,70.50
2017-12-03T12:27:13.288Z,71.20
2017-12-03T12:29:40.960Z,70.70
2017-12-03T12:32:09.580Z,71.00
2017-12-03T12:34:37.978Z,70.80
2017-12-03T12:37:05.549Z,70.80
2017-12-03T12:39:33.527Z,70.70
2017-12-03T12:42:01.158Z,70.70
2017-12-03T12:44:28.750Z,70.60
2017-12-03T12:46:56.390Z,70.80
2017-12-03T12:49:24.731Z,70.70
2017-12-03T12:51:52.894Z,70.70
2017-12-03T12:54:20.462Z,70.80
2017-12-03T12:56:48.101Z,70.80
2017-12-03T12:59:15.845Z,70.80
2017-12-03T13:01:43.605Z,70.70
2017-12-03T13:04:11.613Z,70.90
2017-12-03T13:06:39.226Z,70.90
2017-12-03T13:09:06.835Z,70.90
2017-12-03T13:11:36.533Z,70.90
2017-12-03T13:14:04.213Z,70.70
2017-12-03T13:16:31.859Z,70.90
2017-12-03T13:18:59.462Z,71.20
2017-12-03T13:21:27.919Z,70.80
2017-12-03T13:23:55.619Z,70.80
2017-12-03T13:26:23.195Z,70.70
2017-12-03T13:28:50.843Z,71.00
2017-12-03T13:31:18.431Z,70.80
2017-12-03T13:33:46.078Z,70.90
2017-12-03T13:36:13.653Z,70.90
2017-12-03T13:38:41.238Z,70.80
2017-12-03T13:41:08.873Z,70.80
2017-12-03T13:43:36.464Z,71.00
2017-12-03T13:46:04.121Z,71.10
2017-12-03T13:48:31.832Z,71.00
2017-12-03T13:50:59.763Z,70.90
2017-12-03T13:53:27.370Z,70.90
2017-12-03T13:55:54.944Z,71.40
2017-12-03T13:58:22.574Z,70.80
2017-12-03T14:00:50.159Z,70.80
2017-12-03T14:03:18.357Z,70.90
2017-12-03T14:05:45.941Z,70.50
2017-12-03T14:08:13.531Z,70.50
2017-12-03T14:10:41.735Z,70.60
2017-12-03T14:13:09.344Z,70.40
2017-12-03T14:15:37.002Z,70.70
2017-12-03T14:18:04.606Z,70.70
2017-12-03T14:20:32.177Z,70.60
2017-12-03T14:22:59.813Z,70.60
2017-12-03T14:25:27.390Z,70.40
2017-12-03T14:27:55.181Z,70.60
2017-12-03T14:30:22.750Z,70.60
2017-12-03T14:32:50.342Z,70.70
2017-12-03T14:35:18.993Z,70.70
2017-12-03T14:37:46.616Z,70.70
2017-12-03T14:40:14.246Z,70.70
2017-12-03T14:42:41.830Z,70.60
2017-12-03T14:45:09.453Z,70.70
2017-12-03T14:47:37.225Z,70.90
2017-12-03T14:50:04.844Z,70.70
2017-12-03T14:52:32.497Z,70.90
2017-12-03T14:55:00.106Z,70.80
2017-12-03T14:57:28.523Z,70.80
2017-12-03T14:59:56.164Z,70.70
2017-12-03T15:02:23.807Z,70.90
2017-12-03T15:04:51.417Z,70.90
2017-12-03T15:07:19.075Z,70.90
2017-12-03T15:09:46.687Z,71.00
2017-12-03T15:12:14.270Z,71.10
2017-12-03T15:14:41.910Z,71.10
2017-12-03T15:17:10.274Z,71.20
2017-12-03T15:19:37.910Z,71.20
2017-12-03T15:22:05.718Z,71.10
2017-12-03T15:24:34.053Z,71.40
2017-12-03T15:27:01.679Z,71.50
2017-12-03T15:29:29.271Z,71.50
2017-12-03T15:31:57.039Z,71.50
2017-12-03T15:34:24.646Z,71.40
2017-12-03T15:36:53.117Z,71.50
2017-12-03T15:39:21.507Z,71.50
2017-12-03T15:41:49.127Z,71.50
2017-12-03T15:44:16.705Z,71.60
2017-12-03T15:46:45.100Z,72.40
2017-12-03T15:49:12.695Z,71.60
2017-12-03T15:51:40.263Z,71.70
2017-12-03T15:54:08.074Z,71.80
2017-12-03T15:56:35.678Z,71.80
2017-12-03T15:59:03.302Z,72.00
2017-12-03T16:01:31.665Z,72.00
2017-12-03T16:03:59.300Z,72.00
2017-12-03T16:06:26.888Z,71.90
2017-12-03T16:08:55.033Z,72.00
2017-12-03T16:11:22.691Z,72.00
2017-12-03T16:13:50.296Z,71.90
2017-12-03T16:16:18.688Z,72.30
2017-12-03T16:18:46.275Z,72.30
2017-12-03T16:21:14.298Z,72.00
2017-12-03T16:23:42.650Z,72.40
2017-12-03T16:26:10.251Z,72.30
2017-12-03T16:28:38.867Z,72.10
2017-12-03T16:31:06.505Z,72.10
2017-12-03T16:33:34.120Z,72.30
2017-12-03T16:36:01.720Z,72.30
2017-12-03T16:38:30.158Z,72.40
2017-12-03T16:40:57.913Z,72.40
2017-12-03T16:43:25.487Z,72.60
2017-12-03T16:45:53.892Z,72.60
2017-12-03T16:48:21.479Z,72.60
2017-12-03T16:50:49.323Z,72.60
2017-12-03T16:53:16.881Z,72.40
2017-12-03T16:55:44.784Z,73.20
2017-12-03T16:58:12.390Z,72.70
2017-12-03T17:00:39.979Z,72.80
2017-12-03T17:03:07.570Z,72.80
2017-12-03T17:05:35.153Z,72.90
2017-12-03T17:08:02.795Z,73.00
2017-12-03T17:10:30.387Z,73.00
2017-12-03T17:12:58.150Z,73.10
2017-12-03T17:15:25.882Z,73.10
2017-12-03T17:17:53.486Z,73.20
2017-12-03T17:20:21.398Z,73.30
2017-12-03T17:22:49.004Z,73.50
2017-12-03T17:25:18.133Z,73.70
2017-12-03T17:27:45.951Z,73.70
2017-12-03T17:30:14.093Z,73.70
2017-12-03T17:32:41.706Z,73.70
2017-12-03T17:35:09.289Z,73.70
2017-12-03T17:37:37.715Z,73.70
2017-12-03T17:40:05.354Z,73.70
2017-12-03T17:42:32.989Z,73.70
2017-12-03T17:45:00.589Z,73.80
2017-12-03T17:47:28.240Z,73.70
2017-12-03T17:49:55.851Z,73.70
2017-12-03T17:52:23.729Z,73.70
2017-12-03T17:54:52.093Z,74.10
2017-12-03T17:57:21.201Z,74.00
2017-12-03T17:59:49.612Z,73.70
2017-12-03T18:02:17.199Z,73.70
2017-12-03T18:04:44.868Z,74.10
2017-12-03T18:07:12.442Z,74.00
2017-12-03T18:09:40.111Z,74.10
2017-12-03T18:12:07.730Z,74.10
2017-12-03T18:14:35.322Z,74.30
2017-12-03T18:17:04.934Z,74.10
2017-12-03T18:19:32.513Z,74.10
2017-12-03T18:22:00.136Z,74.30
2017-12-03T18:24:27.766Z,74.30
2017-12-03T18:26:55.532Z,74.50
2017-12-03T18:29:23.636Z,74.40
2017-12-03T18:31:51.284Z,74.60
2017-12-03T18:34:18.858Z,74.50
2017-12-03T18:36:46.498Z,74.70
2017-12-03T18:39:14.083Z,74.80
2017-12-03T18:41:41.705Z,74.90
2017-12-03T18:44:09.315Z,75.40
2017-12-03T18:46:37.459Z,75.90
2017-12-03T18:49:05.051Z,76.10
2017-12-03T18:51:32.645Z,76.40
2017-12-03T18:54:00.271Z,76.60
2017-12-03T18:56:27.994Z,76.70
2017-12-03T18:58:55.651Z,77.10
2017-12-03T19:01:23.239Z,77.20
2017-12-03T19:03:51.316Z,77.80
2017-12-03T19:06:18.913Z,77.70
2017-12-03T19:08:46.500Z,77.80
2017-12-03T19:11:14.138Z,79.30
2017-12-03T19:13:41.727Z,79.70
2017-12-03T19:16:09.624Z,79.60
2017-12-03T19:18:37.220Z,79.80
2017-12-03T19:21:04.826Z,79.00
2017-12-03T19:23:32.413Z,78.80
2017-12-03T19:26:00.480Z,78.60
2017-12-03T19:28:28.188Z,79.40
2017-12-03T19:30:55.782Z,79.40
2017-12-03T19:33:23.402Z,79.10
2017-12-03T19:35:50.994Z,79.70
2017-12-03T19:38:18.614Z,79.80
2017-12-03T19:40:46.987Z,79.40
2017-12-03T19:43:15.136Z,79.40
2017-12-03T19:45:43.589Z,79.90
2017-12-03T19:48:11.279Z,79.40
2017-12-03T19:50:39.776Z,78.70
2017-12-03T19:53:08.501Z,79.10
2017-12-03T19:55:36.553Z,79.10
2017-12-03T19:58:04.259Z,78.60
2017-12-03T20:00:31.927Z,78.80
2017-12-03T20:02:59.617Z,78.70
2017-12-03T20:05:27.271Z,78.40
2017-12-03T20:07:56.406Z,78.40
2017-12-03T20:10:24.140Z,78.30
2017-12-03T20:12:52.893Z,79.60
2017-12-03T20:15:20.529Z,79.30
2017-12-03T20:17:48.107Z,79.00
2017-12-03T20:20:15.755Z,79.10
2017-12-03T20:22:43.431Z,79.10
2017-12-03T20:25:11.099Z,78.60
2017-12-03T20:27:38.850Z,79.10
2017-12-03T20:30:07.461Z,78.60
2017-12-03T20:32:35.873Z,79.00
2017-12-03T20:35:03.590Z,78.90
2017-12-03T20:37:31.226Z,78.60
2017-12-03T20:39:58.963Z,78.50
2017-12-03T20:42:27.829Z,79.00
2017-12-03T20:44:55.675Z,78.90
2017-12-03T20:47:23.423Z,79.00
2017-12-03T20:49:51.037Z,79.10
2017-12-03T20:52:19.405Z,78.50
2017-12-03T20:54:47.040Z,78.50
2017-12-03T20:57:14.627Z,79.20
2017-12-03T20:59:42.678Z,78.70
2017-12-03T21:02:10.251Z,79.10
2017-12-03T21:04:37.844Z,79.40
2017-12-03T21:07:05.446Z,79.70
2017-12-03T21:09:33.022Z,79.40
2017-12-03T21:12:02.177Z,80.20
2017-12-03T21:14:29.769Z,80.20
2017-12-03T21:16:57.738Z,80.20
2017-12-03T21:19:25.327Z,80.50
2017-12-03T21:21:52.915Z,81.00
2017-12-03T21:24:20.548Z,81.30
2017-12-03T21:26:48.947Z,81.70
2017-12-03T21:29:16.917Z,81.70
2017-12-03T21:31:44.499Z,80.90
2017-12-03T21:34:12.611Z,80.80
2017-12-03T21:36:40.993Z,80.40
2017-12-03T21:39:08.578Z,80.30
2017-12-03T21:41:36.979Z,80.30
2017-12-03T21:44:04.581Z,80.30
2017-12-03T21:46:32.438Z,80.20
2017-12-03T21:49:00.037Z,80.30
2017-12-03T21:51:28.900Z,80.70
2017-12-03T21:53:56.487Z,81.30
2017-12-03T21:56:24.060Z,80.30
2017-12-03T21:58:51.688Z,80.50
2017-12-03T22:01:19.281Z,80.00
2017-12-03T22:03:46.953Z,80.00
2017-12-03T22:06:14.513Z,80.00
2017-12-03T22:08:42.522Z,79.40
2017-12-03T22:11:10.157Z,79.30
2017-12-03T22:13:37.767Z,80.00
2017-12-03T22:16:06.386Z,80.40
2017-12-03T22:18:33.992Z,80.40
2017-12-03T22:21:02.062Z,80.50
2017-12-03T22:23:29.650Z,80.50
2017-12-03T22:25:58.195Z,80.40
2017-12-03T22:28:25.813Z,80.80
2017-12-03T22:30:54.167Z,81.70
2017-12-03T22:33:23.294Z,82.00
2017-12-03T22:35:50.890Z,81.90
2017-12-03T22:38:18.877Z,82.10
2017-12-03T22:40:46.468Z,82.10
2017-12-03T22:43:14.049Z,81.90
2017-12-03T22:45:41.678Z,82.00
2017-12-03T22:48:10.022Z,82.10
2017-12-03T22:50:38.501Z,82.10
2017-12-03T22:53:06.078Z,82.20
2017-12-03T22:55:33.969Z,82.20
2017-12-03T22:58:02.334Z,82.20
2017-12-03T23:00:33.857Z,82.10
2017-12-03T23:03:01.459Z,81.80
2017-12-03T23:05:29.985Z,81.30
2017-12-03T23:07:57.629Z,81.30
2017-12-03T23:10:25.237Z,81.40
2017-12-03T23:12:52.879Z,80.80
2017-12-03T23:15:20.470Z,81.40
2017-12-03T23:17:48.520Z,81.80
2017-12-03T23:20:16.105Z,81.80
2017-12-03T23:22:43.702Z,81.80
2017-12-03T23:25:11.341Z,81.80
2017-12-03T23:27:39.682Z,81.70
2017-12-03T23:30:07.321Z,81.60
2017-12-03T23:32:34.889Z,81.70
2017-12-03T23:35:03.144Z,80.50
2017-12-03T23:37:30.708Z,81.20
2017-12-03T23:39:58.308Z,81.20
2017-12-03T23:42:25.920Z,81.50
2017-12-03T23:44:53.523Z,81.40
2017-12-03T23:47:21.166Z,81.10
2017-12-03T23:49:48.728Z,81.20
2017-12-03T23:52:16.614Z,81.40
2017-12-03T23:54:44.197Z,81.40
2017-12-03T23:57:11.893Z,81.50
2017-12-03T23:59:39.508Z,81.10
